sensor_id;sensor_type;location;lat;lon;timestamp;P1;durP1;ratioP1;P2;durP2;ratioP2
21505;SDS011;10914;48.886;9.394;2023-07-20T00:01:44;22.17;;;21.08;;
21505;SDS011;10914;48.886;9.394;2023-07-20T00:04:10;21.60;;;19.95;;
21505;SDS011;10914;48.886;9.394;2023-07-20T00:06:36;21.10;;;19.90;;
21505;SDS011;10914;48.886;9.394;2023-07-20T00:09:04;26.17;;;24.80;;
21505;SDS011;10914;48.886;9.394;2023-07-20T00:11:30;31.58;;;29.70;;
21505;SDS011;10914;48.886;9.394;2023-07-20T00:13:55;21.88;;;20.67;;
21505;SDS011;10914;48.886;9.394;2023-07-20T00:16:20;20.50;;;19.30;;
21505;SDS011;10914;48.886;9.394;2023-07-20T00:18:45;22.42;;;20.92;;
21505;SDS011;10914;48.886;9.394;2023-07-20T00:21:10;21.63;;;20.42;;
21505;SDS011;10914;48.886;9.394;2023-07-20T00:23:35;22.92;;;21.63;;
21505;SDS011;10914;48.886;9.394;2023-07-20T00:26:01;22.10;;;20.80;;
21505;SDS011;10914;48.886;9.394;2023-07-20T00:28:26;21.83;;;20.57;;
21505;SDS011;10914;48.886;9.394;2023-07-20T00:30:51;22.73;;;21.43;;
21505;SDS011;10914;48.886;9.394;2023-07-20T00:33:16;23.00;;;21.73;;
21505;SDS011;10914;48.886;9.394;2023-07-20T00:35:42;25.10;;;23.80;;
21505;SDS011;10914;48.886;9.394;2023-07-20T00:38:07;22.47;;;21.10;;
21505;SDS011;10914;48.886;9.394;2023-07-20T00:40:36;22.43;;;21.13;;
21505;SDS011;10914;48.886;9.394;2023-07-20T00:43:01;22.95;;;21.63;;
21505;SDS011;10914;48.886;9.394;2023-07-20T00:45:27;22.20;;;21.00;;
21505;SDS011;10914;48.886;9.394;2023-07-20T00:47:52;23.98;;;22.67;;
21505;SDS011;10914;48.886;9.394;2023-07-20T00:50:17;24.88;;;23.52;;
21505;SDS011;10914;48.886;9.394;2023-07-20T00:52:42;27.80;;;26.33;;
21505;SDS011;10914;48.886;9.394;2023-07-20T00:55:08;27.30;;;25.85;;
21505;SDS011;10914;48.886;9.394;2023-07-20T00:57:34;25.73;;;24.08;;
21505;SDS011;10914;48.886;9.394;2023-07-20T00:59:59;25.60;;;24.17;;
21505;SDS011;10914;48.886;9.394;2023-07-20T01:02:24;23.87;;;22.60;;
21505;SDS011;10914;48.886;9.394;2023-07-20T01:04:49;25.47;;;24.00;;
21505;SDS011;10914;48.886;9.394;2023-07-20T01:07:17;24.35;;;22.60;;
21505;SDS011;10914;48.886;9.394;2023-07-20T01:09:59;23.58;;;22.38;;
21505;SDS011;10914;48.886;9.394;2023-07-20T01:12:27;22.85;;;21.63;;
21505;SDS011;10914;48.886;9.394;2023-07-20T01:14:54;24.88;;;23.13;;
21505;SDS011;10914;48.886;9.394;2023-07-20T01:17:19;23.17;;;21.73;;
21505;SDS011;10914;48.886;9.394;2023-07-20T01:19:44;22.10;;;20.90;;
21505;SDS011;10914;48.886;9.394;2023-07-20T01:22:21;22.30;;;21.10;;
21505;SDS011;10914;48.886;9.394;2023-07-20T01:27:22;22.60;;;21.40;;
21505;SDS011;10914;48.886;9.394;2023-07-20T01:32:18;23.30;;;21.88;;
21505;SDS011;10914;48.886;9.394;2023-07-20T01:34:43;22.83;;;21.63;;
21505;SDS011;10914;48.886;9.394;2023-07-20T01:37:09;22.83;;;21.20;;
21505;SDS011;10914;48.886;9.394;2023-07-20T01:39:35;22.20;;;20.77;;
21505;SDS011;10914;48.886;9.394;2023-07-20T01:42:01;22.50;;;21.20;;
21505;SDS011;10914;48.886;9.394;2023-07-20T01:44:27;21.83;;;20.70;;
21505;SDS011;10914;48.886;9.394;2023-07-20T01:46:52;23.48;;;22.17;;
21505;SDS011;10914;48.886;9.394;2023-07-20T01:49:17;24.50;;;23.10;;
21505;SDS011;10914;48.886;9.394;2023-07-20T01:51:42;23.63;;;22.13;;
21505;SDS011;10914;48.886;9.394;2023-07-20T01:54:07;22.90;;;21.60;;
21505;SDS011;10914;48.886;9.394;2023-07-20T01:56:32;25.77;;;24.27;;
21505;SDS011;10914;48.886;9.394;2023-07-20T01:58:58;24.92;;;23.55;;
21505;SDS011;10914;48.886;9.394;2023-07-20T02:01:23;23.67;;;22.38;;
21505;SDS011;10914;48.886;9.394;2023-07-20T02:03:48;23.43;;;22.20;;
21505;SDS011;10914;48.886;9.394;2023-07-20T02:06:14;25.77;;;24.37;;
21505;SDS011;10914;48.886;9.394;2023-07-20T02:08:39;25.57;;;24.17;;
21505;SDS011;10914;48.886;9.394;2023-07-20T02:11:04;25.55;;;24.25;;
21505;SDS011;10914;48.886;9.394;2023-07-20T02:13:29;24.15;;;22.65;;
21505;SDS011;10914;48.886;9.394;2023-07-20T02:15:55;24.37;;;23.07;;
21505;SDS011;10914;48.886;9.394;2023-07-20T02:18:20;26.30;;;24.97;;
21505;SDS011;10914;48.886;9.394;2023-07-20T02:20:45;25.67;;;24.27;;
21505;SDS011;10914;48.886;9.394;2023-07-20T02:23:10;24.95;;;23.55;;
21505;SDS011;10914;48.886;9.394;2023-07-20T02:25:36;31.15;;;29.45;;
21505;SDS011;10914;48.886;9.394;2023-07-20T02:28:01;28.67;;;27.23;;
21505;SDS011;10914;48.886;9.394;2023-07-20T02:30:26;30.38;;;28.70;;
21505;SDS011;10914;48.886;9.394;2023-07-20T02:32:52;31.17;;;29.48;;
21505;SDS011;10914;48.886;9.394;2023-07-20T02:35:17;29.20;;;27.30;;
21505;SDS011;10914;48.886;9.394;2023-07-20T02:37:43;29.10;;;27.42;;
21505;SDS011;10914;48.886;9.394;2023-07-20T02:40:08;31.23;;;29.67;;
21505;SDS011;10914;48.886;9.394;2023-07-20T02:42:34;27.67;;;26.33;;
21505;SDS011;10914;48.886;9.394;2023-07-20T02:44:59;29.33;;;27.73;;
21505;SDS011;10914;48.886;9.394;2023-07-20T02:47:24;43.10;;;40.40;;
21505;SDS011;10914;48.886;9.394;2023-07-20T02:49:50;42.60;;;40.50;;
21505;SDS011;10914;48.886;9.394;2023-07-20T02:52:15;42.17;;;40.07;;
21505;SDS011;10914;48.886;9.394;2023-07-20T02:54:40;33.00;;;31.20;;
21505;SDS011;10914;48.886;9.394;2023-07-20T02:57:05;36.53;;;34.63;;
21505;SDS011;10914;48.886;9.394;2023-07-20T02:59:30;30.58;;;28.83;;
21505;SDS011;10914;48.886;9.394;2023-07-20T03:01:56;29.90;;;28.40;;
21505;SDS011;10914;48.886;9.394;2023-07-20T03:04:22;27.90;;;26.40;;
21505;SDS011;10914;48.886;9.394;2023-07-20T03:06:48;25.55;;;24.15;;
21505;SDS011;10914;48.886;9.394;2023-07-20T03:09:13;26.80;;;25.30;;
21505;SDS011;10914;48.886;9.394;2023-07-20T03:11:38;26.30;;;24.85;;
21505;SDS011;10914;48.886;9.394;2023-07-20T03:14:03;23.30;;;22.00;;
21505;SDS011;10914;48.886;9.394;2023-07-20T03:16:29;22.65;;;21.27;;
21505;SDS011;10914;48.886;9.394;2023-07-20T03:18:55;22.45;;;21.15;;
21505;SDS011;10914;48.886;9.394;2023-07-20T03:21:20;22.73;;;21.33;;
21505;SDS011;10914;48.886;9.394;2023-07-20T03:23:45;22.00;;;20.80;;
21505;SDS011;10914;48.886;9.394;2023-07-20T03:26:11;22.25;;;21.00;;
21505;SDS011;10914;48.886;9.394;2023-07-20T03:28:36;21.98;;;20.67;;
21505;SDS011;10914;48.886;9.394;2023-07-20T03:31:02;22.40;;;21.00;;
21505;SDS011;10914;48.886;9.394;2023-07-20T03:33:28;22.27;;;20.98;;
21505;SDS011;10914;48.886;9.394;2023-07-20T03:35:54;23.20;;;22.00;;
21505;SDS011;10914;48.886;9.394;2023-07-20T03:38:19;22.85;;;21.55;;
21505;SDS011;10914;48.886;9.394;2023-07-20T03:40:51;22.73;;;21.33;;
21505;SDS011;10914;48.886;9.394;2023-07-20T03:43:17;24.40;;;23.00;;
21505;SDS011;10914;48.886;9.394;2023-07-20T03:45:42;25.90;;;24.45;;
21505;SDS011;10914;48.886;9.394;2023-07-20T03:48:07;25.85;;;24.48;;
21505;SDS011;10914;48.886;9.394;2023-07-20T03:50:32;27.40;;;26.00;;
21505;SDS011;10914;48.886;9.394;2023-07-20T03:52:58;28.08;;;26.52;;
21505;SDS011;10914;48.886;9.394;2023-07-20T03:55:23;30.10;;;28.57;;
21505;SDS011;10914;48.886;9.394;2023-07-20T03:57:48;28.83;;;27.23;;
21505;SDS011;10914;48.886;9.394;2023-07-20T04:00:15;28.25;;;26.73;;
21505;SDS011;10914;48.886;9.394;2023-07-20T04:02:41;27.00;;;25.50;;
21505;SDS011;10914;48.886;9.394;2023-07-20T04:05:06;26.90;;;25.30;;
21505;SDS011;10914;48.886;9.394;2023-07-20T04:07:32;27.35;;;25.85;;
21505;SDS011;10914;48.886;9.394;2023-07-20T04:09:57;27.03;;;25.53;;
21505;SDS011;10914;48.886;9.394;2023-07-20T04:12:22;27.53;;;25.83;;
21505;SDS011;10914;48.886;9.394;2023-07-20T04:14:47;26.63;;;24.87;;
21505;SDS011;10914;48.886;9.394;2023-07-20T04:17:12;28.27;;;26.40;;
21505;SDS011;10914;48.886;9.394;2023-07-20T04:19:38;26.50;;;24.90;;
21505;SDS011;10914;48.886;9.394;2023-07-20T04:22:03;26.02;;;24.50;;
21505;SDS011;10914;48.886;9.394;2023-07-20T04:24:28;25.13;;;23.73;;
21505;SDS011;10914;48.886;9.394;2023-07-20T04:26:53;25.67;;;24.30;;
21505;SDS011;10914;48.886;9.394;2023-07-20T04:29:19;25.20;;;23.80;;
21505;SDS011;10914;48.886;9.394;2023-07-20T04:31:44;24.83;;;23.33;;
21505;SDS011;10914;48.886;9.394;2023-07-20T04:34:09;25.23;;;23.83;;
21505;SDS011;10914;48.886;9.394;2023-07-20T04:36:34;24.90;;;23.47;;
21505;SDS011;10914;48.886;9.394;2023-07-20T04:38:59;25.93;;;24.53;;
21505;SDS011;10914;48.886;9.394;2023-07-20T04:41:25;25.65;;;24.15;;
21505;SDS011;10914;48.886;9.394;2023-07-20T04:43:51;25.02;;;23.63;;
21505;SDS011;10914;48.886;9.394;2023-07-20T04:46:16;25.37;;;24.07;;
21505;SDS011;10914;48.886;9.394;2023-07-20T04:48:43;25.92;;;24.52;;
21505;SDS011;10914;48.886;9.394;2023-07-20T04:51:08;31.47;;;29.50;;
21505;SDS011;10914;48.886;9.394;2023-07-20T04:53:35;29.42;;;27.80;;
21505;SDS011;10914;48.886;9.394;2023-07-20T04:56:00;32.90;;;31.10;;
21505;SDS011;10914;48.886;9.394;2023-07-20T04:58:25;33.42;;;31.60;;
21505;SDS011;10914;48.886;9.394;2023-07-20T05:00:51;38.93;;;36.83;;
21505;SDS011;10914;48.886;9.394;2023-07-20T05:03:16;27.52;;;25.80;;
21505;SDS011;10914;48.886;9.394;2023-07-20T05:05:41;27.48;;;25.80;;
21505;SDS011;10914;48.886;9.394;2023-07-20T05:08:06;36.23;;;34.30;;
21505;SDS011;10914;48.886;9.394;2023-07-20T05:10:32;37.17;;;35.20;;
21505;SDS011;10914;48.886;9.394;2023-07-20T05:12:57;25.65;;;24.15;;
21505;SDS011;10914;48.886;9.394;2023-07-20T05:15:22;26.10;;;24.70;;
21505;SDS011;10914;48.886;9.394;2023-07-20T05:17:48;32.40;;;30.60;;
21505;SDS011;10914;48.886;9.394;2023-07-20T05:20:13;30.83;;;29.10;;
21505;SDS011;10914;48.886;9.394;2023-07-20T05:22:38;26.27;;;24.70;;
21505;SDS011;10914;48.886;9.394;2023-07-20T05:25:07;31.52;;;29.92;;
21505;SDS011;10914;48.886;9.394;2023-07-20T05:27:33;32.33;;;30.42;;
21505;SDS011;10914;48.886;9.394;2023-07-20T05:29:59;28.13;;;26.65;;
21505;SDS011;10914;48.886;9.394;2023-07-20T05:32:24;29.03;;;27.20;;
21505;SDS011;10914;48.886;9.394;2023-07-20T05:34:51;33.07;;;31.40;;
21505;SDS011;10914;48.886;9.394;2023-07-20T05:37:16;25.30;;;23.60;;
21505;SDS011;10914;48.886;9.394;2023-07-20T05:39:41;24.37;;;23.07;;
21505;SDS011;10914;48.886;9.394;2023-07-20T05:42:06;25.07;;;23.77;;
21505;SDS011;10914;48.886;9.394;2023-07-20T05:44:32;22.77;;;21.40;;
21505;SDS011;10914;48.886;9.394;2023-07-20T05:46:57;21.63;;;20.13;;
21505;SDS011;10914;48.886;9.394;2023-07-20T05:49:22;22.20;;;21.00;;
21505;SDS011;10914;48.886;9.394;2023-07-20T05:51:47;22.93;;;21.57;;
21505;SDS011;10914;48.886;9.394;2023-07-20T05:54:13;23.33;;;21.93;;
21505;SDS011;10914;48.886;9.394;2023-07-20T05:56:38;25.60;;;24.30;;
21505;SDS011;10914;48.886;9.394;2023-07-20T05:59:03;26.40;;;24.98;;
21505;SDS011;10914;48.886;9.394;2023-07-20T06:01:28;26.58;;;25.20;;
21505;SDS011;10914;48.886;9.394;2023-07-20T06:03:53;28.57;;;27.03;;
21505;SDS011;10914;48.886;9.394;2023-07-20T06:06:18;27.97;;;26.37;;
21505;SDS011;10914;48.886;9.394;2023-07-20T06:08:44;27.40;;;25.70;;
21505;SDS011;10914;48.886;9.394;2023-07-20T06:11:09;26.20;;;24.60;;
21505;SDS011;10914;48.886;9.394;2023-07-20T06:13:34;27.98;;;26.50;;
21505;SDS011;10914;48.886;9.394;2023-07-20T06:16:00;28.43;;;26.73;;
21505;SDS011;10914;48.886;9.394;2023-07-20T06:18:25;26.95;;;25.45;;
21505;SDS011;10914;48.886;9.394;2023-07-20T06:20:50;27.73;;;26.20;;
21505;SDS011;10914;48.886;9.394;2023-07-20T06:23:16;27.50;;;25.90;;
21505;SDS011;10914;48.886;9.394;2023-07-20T06:25:41;28.65;;;27.05;;
21505;SDS011;10914;48.886;9.394;2023-07-20T06:28:06;22.77;;;21.37;;
21505;SDS011;10914;48.886;9.394;2023-07-20T06:30:33;22.70;;;21.40;;
21505;SDS011;10914;48.886;9.394;2023-07-20T06:32:58;24.35;;;23.05;;
21505;SDS011;10914;48.886;9.394;2023-07-20T06:35:24;23.48;;;22.27;;
21505;SDS011;10914;48.886;9.394;2023-07-20T06:37:50;33.53;;;31.83;;
21505;SDS011;10914;48.886;9.394;2023-07-20T06:40:15;27.47;;;26.17;;
21505;SDS011;10914;48.886;9.394;2023-07-20T06:42:40;23.55;;;22.23;;
21505;SDS011;10914;48.886;9.394;2023-07-20T06:45:05;21.60;;;20.30;;
21505;SDS011;10914;48.886;9.394;2023-07-20T06:47:31;28.00;;;26.42;;
21505;SDS011;10914;48.886;9.394;2023-07-20T06:49:56;22.63;;;21.33;;
21505;SDS011;10914;48.886;9.394;2023-07-20T06:52:21;25.47;;;24.07;;
21505;SDS011;10914;48.886;9.394;2023-07-20T06:54:46;26.57;;;25.10;;
21505;SDS011;10914;48.886;9.394;2023-07-20T06:57:11;23.43;;;22.13;;
21505;SDS011;10914;48.886;9.394;2023-07-20T06:59:37;22.08;;;20.75;;
21505;SDS011;10914;48.886;9.394;2023-07-20T07:02:02;23.40;;;21.97;;
21505;SDS011;10914;48.886;9.394;2023-07-20T07:04:27;20.98;;;19.80;;
21505;SDS011;10914;48.886;9.394;2023-07-20T07:06:52;22.90;;;21.70;;
21505;SDS011;10914;48.886;9.394;2023-07-20T07:09:17;20.23;;;18.90;;
21505;SDS011;10914;48.886;9.394;2023-07-20T07:11:43;21.67;;;20.17;;
21505;SDS011;10914;48.886;9.394;2023-07-20T07:14:09;20.65;;;19.45;;
21505;SDS011;10914;48.886;9.394;2023-07-20T07:16:34;20.53;;;19.03;;
21505;SDS011;10914;48.886;9.394;2023-07-20T07:19:06;20.55;;;19.40;;
21505;SDS011;10914;48.886;9.394;2023-07-20T07:21:32;21.55;;;20.25;;
21505;SDS011;10914;48.886;9.394;2023-07-20T07:23:57;21.87;;;20.67;;
21505;SDS011;10914;48.886;9.394;2023-07-20T07:26:24;22.02;;;20.67;;
21505;SDS011;10914;48.886;9.394;2023-07-20T07:28:49;21.67;;;20.43;;
21505;SDS011;10914;48.886;9.394;2023-07-20T07:31:14;21.50;;;20.17;;
21505;SDS011;10914;48.886;9.394;2023-07-20T07:33:40;21.67;;;20.42;;
21505;SDS011;10914;48.886;9.394;2023-07-20T07:36:05;21.90;;;20.70;;
21505;SDS011;10914;48.886;9.394;2023-07-20T07:38:30;22.15;;;20.92;;
21505;SDS011;10914;48.886;9.394;2023-07-20T07:40:56;21.77;;;20.35;;
21505;SDS011;10914;48.886;9.394;2023-07-20T07:43:21;22.55;;;21.25;;
21505;SDS011;10914;48.886;9.394;2023-07-20T07:45:46;21.63;;;20.40;;
21505;SDS011;10914;48.886;9.394;2023-07-20T07:48:12;22.13;;;20.85;;
21505;SDS011;10914;48.886;9.394;2023-07-20T07:50:39;21.02;;;19.80;;
21505;SDS011;10914;48.886;9.394;2023-07-20T07:53:08;21.23;;;19.85;;
21505;SDS011;10914;48.886;9.394;2023-07-20T07:55:34;18.98;;;17.98;;
21505;SDS011;10914;48.886;9.394;2023-07-20T07:58:00;19.23;;;18.02;;
21505;SDS011;10914;48.886;9.394;2023-07-20T08:00:25;18.70;;;17.70;;
21505;SDS011;10914;48.886;9.394;2023-07-20T08:02:50;21.10;;;19.90;;
21505;SDS011;10914;48.886;9.394;2023-07-20T08:05:16;22.15;;;20.77;;
21505;SDS011;10914;48.886;9.394;2023-07-20T08:07:41;20.42;;;19.33;;
21505;SDS011;10914;48.886;9.394;2023-07-20T08:10:07;21.10;;;20.00;;
21505;SDS011;10914;48.886;9.394;2023-07-20T08:12:33;19.77;;;18.65;;
21505;SDS011;10914;48.886;9.394;2023-07-20T08:14:58;19.90;;;18.70;;
21505;SDS011;10914;48.886;9.394;2023-07-20T08:17:24;20.50;;;19.40;;
21505;SDS011;10914;48.886;9.394;2023-07-20T08:19:49;18.90;;;17.75;;
21505;SDS011;10914;48.886;9.394;2023-07-20T08:22:14;19.40;;;18.40;;
21505;SDS011;10914;48.886;9.394;2023-07-20T08:24:40;19.67;;;18.48;;
21505;SDS011;10914;48.886;9.394;2023-07-20T08:27:06;19.27;;;17.92;;
21505;SDS011;10914;48.886;9.394;2023-07-20T08:29:31;19.23;;;18.10;;
21505;SDS011;10914;48.886;9.394;2023-07-20T08:31:56;20.13;;;18.93;;
21505;SDS011;10914;48.886;9.394;2023-07-20T08:34:22;18.80;;;17.90;;
21505;SDS011;10914;48.886;9.394;2023-07-20T08:36:47;20.30;;;19.10;;
21505;SDS011;10914;48.886;9.394;2023-07-20T08:39:12;20.50;;;19.30;;
21505;SDS011;10914;48.886;9.394;2023-07-20T08:41:37;19.00;;;17.90;;
21505;SDS011;10914;48.886;9.394;2023-07-20T08:44:04;20.48;;;19.13;;
21505;SDS011;10914;48.886;9.394;2023-07-20T08:46:29;19.73;;;18.63;;
21505;SDS011;10914;48.886;9.394;2023-07-20T08:48:55;18.63;;;17.63;;
21505;SDS011;10914;48.886;9.394;2023-07-20T08:51:21;19.88;;;18.67;;
21505;SDS011;10914;48.886;9.394;2023-07-20T08:53:46;19.57;;;18.50;;
21505;SDS011;10914;48.886;9.394;2023-07-20T08:56:12;19.20;;;18.13;;
21505;SDS011;10914;48.886;9.394;2023-07-20T08:58:38;19.05;;;17.58;;
21505;SDS011;10914;48.886;9.394;2023-07-20T09:01:04;18.92;;;17.92;;
21505;SDS011;10914;48.886;9.394;2023-07-20T09:03:29;19.40;;;18.30;;
21505;SDS011;10914;48.886;9.394;2023-07-20T09:05:54;18.75;;;17.48;;
21505;SDS011;10914;48.886;9.394;2023-07-20T09:08:20;19.27;;;18.17;;
21505;SDS011;10914;48.886;9.394;2023-07-20T09:10:45;19.10;;;18.03;;
21505;SDS011;10914;48.886;9.394;2023-07-20T09:13:13;18.43;;;17.43;;
21505;SDS011;10914;48.886;9.394;2023-07-20T09:15:39;19.27;;;18.05;;
21505;SDS011;10914;48.886;9.394;2023-07-20T09:18:04;19.50;;;18.42;;
21505;SDS011;10914;48.886;9.394;2023-07-20T09:20:30;18.33;;;17.30;;
21505;SDS011;10914;48.886;9.394;2023-07-20T09:22:56;18.40;;;17.30;;
21505;SDS011;10914;48.886;9.394;2023-07-20T09:25:21;19.40;;;18.23;;
21505;SDS011;10914;48.886;9.394;2023-07-20T09:27:48;18.63;;;17.58;;
21505;SDS011;10914;48.886;9.394;2023-07-20T09:30:13;18.95;;;17.85;;
21505;SDS011;10914;48.886;9.394;2023-07-20T09:32:40;18.80;;;17.70;;
21505;SDS011;10914;48.886;9.394;2023-07-20T09:35:06;19.13;;;18.13;;
21505;SDS011;10914;48.886;9.394;2023-07-20T09:37:33;18.27;;;17.17;;
21505;SDS011;10914;48.886;9.394;2023-07-20T09:39:58;18.45;;;17.40;;
21505;SDS011;10914;48.886;9.394;2023-07-20T09:42:24;18.48;;;17.38;;
21505;SDS011;10914;48.886;9.394;2023-07-20T09:44:50;18.15;;;17.05;;
21505;SDS011;10914;48.886;9.394;2023-07-20T09:47:21;18.38;;;17.17;;
21505;SDS011;10914;48.886;9.394;2023-07-20T09:49:46;17.90;;;17.00;;
21505;SDS011;10914;48.886;9.394;2023-07-20T09:52:12;18.80;;;17.80;;
21505;SDS011;10914;48.886;9.394;2023-07-20T09:54:38;17.98;;;17.08;;
21505;SDS011;10914;48.886;9.394;2023-07-20T09:57:03;19.15;;;18.00;;
21505;SDS011;10914;48.886;9.394;2023-07-20T09:59:29;18.10;;;17.10;;
21505;SDS011;10914;48.886;9.394;2023-07-20T10:01:55;18.37;;;17.33;;
21505;SDS011;10914;48.886;9.394;2023-07-20T10:04:22;18.42;;;17.42;;
21505;SDS011;10914;48.886;9.394;2023-07-20T10:06:47;18.02;;;16.88;;
21505;SDS011;10914;48.886;9.394;2023-07-20T10:09:15;18.75;;;17.75;;
21505;SDS011;10914;48.886;9.394;2023-07-20T10:11:40;18.35;;;17.35;;
21505;SDS011;10914;48.886;9.394;2023-07-20T10:14:08;18.42;;;17.42;;
21505;SDS011;10914;48.886;9.394;2023-07-20T10:16:36;17.85;;;16.85;;
21505;SDS011;10914;48.886;9.394;2023-07-20T10:21:33;17.85;;;16.95;;
21505;SDS011;10914;48.886;9.394;2023-07-20T10:24:00;17.90;;;16.88;;
21505;SDS011;10914;48.886;9.394;2023-07-20T10:26:26;17.65;;;16.65;;
21505;SDS011;10914;48.886;9.394;2023-07-20T10:28:51;17.70;;;16.80;;
21505;SDS011;10914;48.886;9.394;2023-07-20T10:31:16;18.98;;;17.92;;
21505;SDS011;10914;48.886;9.394;2023-07-20T10:33:42;17.73;;;16.80;;
21505;SDS011;10914;48.886;9.394;2023-07-20T10:36:07;17.08;;;16.20;;
21505;SDS011;10914;48.886;9.394;2023-07-20T10:38:39;17.63;;;16.83;;
21505;SDS011;10914;48.886;9.394;2023-07-20T10:41:08;17.98;;;16.88;;
21505;SDS011;10914;48.886;9.394;2023-07-20T10:43:42;18.13;;;17.08;;
21505;SDS011;10914;48.886;9.394;2023-07-20T10:46:07;17.13;;;16.15;;
21505;SDS011;10914;48.886;9.394;2023-07-20T10:48:32;17.80;;;16.90;;
21505;SDS011;10914;48.886;9.394;2023-07-20T10:51:14;19.30;;;18.27;;
21505;SDS011;10914;48.886;9.394;2023-07-20T10:53:44;18.45;;;17.55;;
21505;SDS011;10914;48.886;9.394;2023-07-20T10:56:13;19.10;;;18.10;;
21505;SDS011;10914;48.886;9.394;2023-07-20T10:58:39;18.20;;;17.25;;
21505;SDS011;10914;48.886;9.394;2023-07-20T11:01:04;17.60;;;16.50;;
21505;SDS011;10914;48.886;9.394;2023-07-20T11:03:32;15.98;;;15.07;;
21505;SDS011;10914;48.886;9.394;2023-07-20T11:05:58;16.10;;;15.20;;
21505;SDS011;10914;48.886;9.394;2023-07-20T11:08:42;17.13;;;16.13;;
21505;SDS011;10914;48.886;9.394;2023-07-20T11:11:41;16.65;;;15.65;;
21505;SDS011;10914;48.886;9.394;2023-07-20T11:13:59;16.23;;;15.18;;
21505;SDS011;10914;48.886;9.394;2023-07-20T11:19:21;16.30;;;15.50;;
21505;SDS011;10914;48.886;9.394;2023-07-20T11:21:55;15.80;;;14.90;;
21505;SDS011;10914;48.886;9.394;2023-07-20T11:24:20;15.90;;;15.10;;
21505;SDS011;10914;48.886;9.394;2023-07-20T11:26:47;15.20;;;14.30;;
21505;SDS011;10914;48.886;9.394;2023-07-20T11:29:12;15.00;;;14.30;;
21505;SDS011;10914;48.886;9.394;2023-07-20T11:31:38;15.70;;;14.65;;
21505;SDS011;10914;48.886;9.394;2023-07-20T11:34:04;15.43;;;14.73;;
21505;SDS011;10914;48.886;9.394;2023-07-20T11:36:29;15.00;;;14.20;;
21505;SDS011;10914;48.886;9.394;2023-07-20T11:38:54;15.40;;;14.70;;
21505;SDS011;10914;48.886;9.394;2023-07-20T11:41:20;15.60;;;14.60;;
21505;SDS011;10914;48.886;9.394;2023-07-20T11:43:46;14.75;;;14.05;;
21505;SDS011;10914;48.886;9.394;2023-07-20T11:46:12;15.25;;;14.45;;
21505;SDS011;10914;48.886;9.394;2023-07-20T11:48:37;15.43;;;14.63;;
21505;SDS011;10914;48.886;9.394;2023-07-20T11:51:02;16.23;;;15.30;;
21505;SDS011;10914;48.886;9.394;2023-07-20T11:53:27;15.67;;;14.57;;
21505;SDS011;10914;48.886;9.394;2023-07-20T11:55:53;15.90;;;15.10;;
21505;SDS011;10914;48.886;9.394;2023-07-20T11:58:18;15.70;;;14.73;;
21505;SDS011;10914;48.886;9.394;2023-07-20T12:00:44;15.82;;;14.98;;
21505;SDS011;10914;48.886;9.394;2023-07-20T12:03:09;16.17;;;15.27;;
21505;SDS011;10914;48.886;9.394;2023-07-20T12:05:38;15.65;;;14.80;;
21505;SDS011;10914;48.886;9.394;2023-07-20T12:08:03;15.68;;;14.88;;
21505;SDS011;10914;48.886;9.394;2023-07-20T12:10:28;14.93;;;14.13;;
21505;SDS011;10914;48.886;9.394;2023-07-20T12:12:54;14.80;;;13.90;;
21505;SDS011;10914;48.886;9.394;2023-07-20T12:15:20;14.38;;;13.57;;
21505;SDS011;10914;48.886;9.394;2023-07-20T12:17:46;14.13;;;13.43;;
21505;SDS011;10914;48.886;9.394;2023-07-20T12:20:11;14.90;;;14.20;;
21505;SDS011;10914;48.886;9.394;2023-07-20T12:22:40;14.10;;;13.30;;
21505;SDS011;10914;48.886;9.394;2023-07-20T12:25:08;14.00;;;13.30;;
21505;SDS011;10914;48.886;9.394;2023-07-20T12:27:35;13.80;;;12.95;;
21505;SDS011;10914;48.886;9.394;2023-07-20T12:30:01;13.98;;;13.18;;
21505;SDS011;10914;48.886;9.394;2023-07-20T12:32:28;13.32;;;12.63;;
21505;SDS011;10914;48.886;9.394;2023-07-20T12:34:53;13.90;;;13.20;;
21505;SDS011;10914;48.886;9.394;2023-07-20T12:37:18;14.30;;;13.60;;
21505;SDS011;10914;48.886;9.394;2023-07-20T12:39:43;14.80;;;13.90;;
21505;SDS011;10914;48.886;9.394;2023-07-20T12:42:12;15.38;;;13.82;;
21505;SDS011;10914;48.886;9.394;2023-07-20T12:44:37;14.10;;;13.37;;
21505;SDS011;10914;48.886;9.394;2023-07-20T12:47:02;14.17;;;13.37;;
21505;SDS011;10914;48.886;9.394;2023-07-20T12:49:27;13.93;;;13.10;;
21505;SDS011;10914;48.886;9.394;2023-07-20T12:51:52;14.90;;;13.97;;
21505;SDS011;10914;48.886;9.394;2023-07-20T12:54:17;13.70;;;13.00;;
21505;SDS011;10914;48.886;9.394;2023-07-20T12:56:43;14.37;;;13.67;;
21505;SDS011;10914;48.886;9.394;2023-07-20T12:59:08;14.47;;;13.47;;
21505;SDS011;10914;48.886;9.394;2023-07-20T13:01:33;14.60;;;13.90;;
21505;SDS011;10914;48.886;9.394;2023-07-20T13:03:58;14.20;;;13.40;;
21505;SDS011;10914;48.886;9.394;2023-07-20T13:06:24;13.88;;;13.18;;
21505;SDS011;10914;48.886;9.394;2023-07-20T13:08:49;14.40;;;13.60;;
21505;SDS011;10914;48.886;9.394;2023-07-20T13:11:15;14.55;;;13.77;;
21505;SDS011;10914;48.886;9.394;2023-07-20T13:13:41;14.77;;;13.88;;
21505;SDS011;10914;48.886;9.394;2023-07-20T13:16:06;14.70;;;13.70;;
21505;SDS011;10914;48.886;9.394;2023-07-20T13:18:31;14.77;;;13.90;;
21505;SDS011;10914;48.886;9.394;2023-07-20T13:20:56;14.57;;;13.73;;
21505;SDS011;10914;48.886;9.394;2023-07-20T13:23:22;14.40;;;13.70;;
21505;SDS011;10914;48.886;9.394;2023-07-20T13:25:47;14.03;;;13.17;;
21505;SDS011;10914;48.886;9.394;2023-07-20T13:28:12;14.13;;;13.43;;
21505;SDS011;10914;48.886;9.394;2023-07-20T13:30:37;14.38;;;13.57;;
21505;SDS011;10914;48.886;9.394;2023-07-20T13:33:02;14.83;;;14.10;;
21505;SDS011;10914;48.886;9.394;2023-07-20T13:35:28;13.88;;;13.18;;
21505;SDS011;10914;48.886;9.394;2023-07-20T13:37:53;15.00;;;13.93;;
21505;SDS011;10914;48.886;9.394;2023-07-20T13:40:18;14.73;;;13.83;;
21505;SDS011;10914;48.886;9.394;2023-07-20T13:42:44;14.68;;;13.80;;
21505;SDS011;10914;48.886;9.394;2023-07-20T13:45:10;14.40;;;13.60;;
21505;SDS011;10914;48.886;9.394;2023-07-20T13:47:35;14.40;;;13.55;;
21505;SDS011;10914;48.886;9.394;2023-07-20T13:50:00;14.27;;;13.47;;
21505;SDS011;10914;48.886;9.394;2023-07-20T13:52:26;13.90;;;13.20;;
21505;SDS011;10914;48.886;9.394;2023-07-20T13:54:51;14.32;;;13.63;;
21505;SDS011;10914;48.886;9.394;2023-07-20T13:57:16;13.87;;;13.17;;
21505;SDS011;10914;48.886;9.394;2023-07-20T13:59:41;15.63;;;14.83;;
21505;SDS011;10914;48.886;9.394;2023-07-20T14:02:06;14.03;;;13.33;;
21505;SDS011;10914;48.886;9.394;2023-07-20T14:04:32;14.63;;;13.70;;
21505;SDS011;10914;48.886;9.394;2023-07-20T14:06:57;14.33;;;13.53;;
21505;SDS011;10914;48.886;9.394;2023-07-20T14:09:22;14.73;;;14.03;;
21505;SDS011;10914;48.886;9.394;2023-07-20T14:11:48;16.75;;;15.85;;
21505;SDS011;10914;48.886;9.394;2023-07-20T14:14:13;13.47;;;12.67;;
21505;SDS011;10914;48.886;9.394;2023-07-20T14:16:38;13.85;;;13.05;;
21505;SDS011;10914;48.886;9.394;2023-07-20T14:19:03;13.43;;;12.73;;
21505;SDS011;10914;48.886;9.394;2023-07-20T14:21:30;14.18;;;13.45;;
21505;SDS011;10914;48.886;9.394;2023-07-20T14:23:56;13.63;;;12.95;;